createdAt,value
2022-09-16T00:00:32.369Z,1.00
2022-09-16T00:02:59.105Z,0.70
2022-09-16T00:05:26.181Z,0.90
2022-09-16T00:07:53.531Z,0.68
2022-09-16T00:10:21.533Z,0.80
2022-09-16T00:12:48.782Z,0.90
2022-09-16T00:15:15.716Z,1.00
2022-09-16T00:17:42.213Z,0.80
2022-09-16T00:20:08.961Z,0.80
2022-09-16T00:22:35.673Z,0.80
2022-09-16T00:25:02.192Z,0.80
2022-09-16T00:27:28.877Z,0.80
2022-09-16T00:29:55.332Z,1.15
2022-09-16T00:32:24.025Z,0.82
2022-09-16T00:34:51.195Z,0.70
2022-09-16T00:37:17.947Z,0.90
2022-09-16T00:39:44.481Z,0.85
2022-09-16T00:42:12.135Z,0.80
2022-09-16T00:44:59.759Z,1.00
2022-09-16T00:47:38.715Z,0.75
2022-09-16T00:50:16.751Z,0.50
2022-09-16T00:52:43.598Z,0.50
2022-09-16T00:55:17.243Z,0.90
2022-09-16T00:57:44.955Z,0.90
2022-09-16T01:00:13.531Z,0.80
2022-09-16T01:02:42.441Z,0.73
2022-09-16T01:05:13.947Z,0.70
2022-09-16T01:07:49.200Z,0.77
2022-09-16T01:10:23.439Z,0.60
2022-09-16T01:13:03.683Z,0.70
2022-09-16T01:16:06.747Z,0.80
2022-09-16T01:18:42.678Z,0.80
2022-09-16T01:21:31.345Z,0.73
2022-09-16T01:24:22.274Z,0.80
2022-09-16T01:27:14.519Z,0.57
2022-09-16T01:30:14.545Z,0.90
2022-09-16T01:32:58.687Z,0.85
2022-09-16T01:35:45.463Z,0.95
2022-09-16T01:38:27.154Z,0.90
2022-09-16T01:41:06.088Z,0.80
2022-09-16T01:43:51.718Z,1.03
2022-09-16T01:46:36.352Z,0.70
2022-09-16T01:49:15.051Z,1.10
2022-09-16T01:51:49.545Z,0.93
2022-09-16T01:54:27.800Z,1.20
2022-09-16T01:57:04.715Z,0.70
2022-09-16T01:59:38.203Z,1.10
2022-09-16T02:02:11.953Z,1.13
2022-09-16T02:04:54.527Z,1.17
2022-09-16T02:07:26.963Z,0.93
2022-09-16T02:10:00.166Z,0.90
2022-09-16T02:12:34.658Z,0.80
2022-09-16T02:15:08.272Z,1.17
2022-09-16T02:17:40.428Z,1.10
2022-09-16T02:20:11.196Z,1.23
2022-09-16T02:22:44.896Z,0.97
2022-09-16T02:25:14.117Z,1.25
2022-09-16T02:27:43.416Z,0.90
2022-09-16T02:30:15.246Z,1.00
2022-09-16T02:32:46.409Z,1.20
2022-09-16T02:35:17.968Z,1.10
2022-09-16T02:37:57.335Z,1.08
2022-09-16T02:40:35.148Z,1.10
2022-09-16T02:43:02.470Z,1.00
2022-09-16T02:46:02.230Z,1.10
2022-09-16T02:48:39.801Z,1.20
2022-09-16T02:51:27.602Z,1.10
2022-09-16T02:53:59.670Z,1.85
2022-09-16T02:56:46.561Z,1.30
2022-09-16T02:59:15.411Z,1.02
2022-09-16T03:01:46.820Z,0.93
2022-09-16T03:04:16.082Z,1.23
2022-09-16T03:06:43.011Z,1.20
2022-09-16T03:09:14.752Z,1.25
2022-09-16T03:12:16.678Z,1.10
2022-09-16T03:14:53.058Z,1.20
2022-09-16T03:17:50.554Z,1.00
2022-09-16T03:20:38.413Z,1.30
2022-09-16T03:23:13.803Z,1.20
2022-09-16T03:25:40.180Z,1.10
2022-09-16T03:28:16.943Z,1.20
2022-09-16T03:31:04.908Z,1.00
2022-09-16T03:33:39.527Z,1.25
2022-09-16T03:36:09.305Z,1.10
2022-09-16T03:38:38.571Z,1.13
2022-09-16T03:41:07.799Z,1.33
2022-09-16T03:43:34.303Z,1.45
2022-09-16T03:46:00.777Z,1.55
2022-09-16T03:48:27.547Z,1.20
2022-09-16T03:50:54.079Z,1.30
2022-09-16T03:53:20.581Z,1.30
2022-09-16T03:55:50.195Z,1.08
2022-09-16T03:58:16.724Z,1.25
2022-09-16T04:00:43.248Z,1.48
2022-09-16T04:03:09.743Z,1.40
2022-09-16T04:05:36.243Z,1.10
2022-09-16T04:08:02.913Z,1.17
2022-09-16T04:10:29.730Z,1.33
2022-09-16T04:12:59.023Z,0.95
2022-09-16T04:15:25.510Z,1.15
2022-09-16T04:17:52.231Z,1.20
2022-09-16T04:20:18.900Z,1.55
2022-09-16T04:22:45.409Z,1.02
2022-09-16T04:25:11.822Z,1.05
2022-09-16T04:27:38.295Z,1.13
2022-09-16T04:30:05.108Z,1.43
2022-09-16T04:32:31.559Z,1.25
2022-09-16T04:34:57.974Z,1.00
2022-09-16T04:37:24.508Z,1.52
2022-09-16T04:39:51.000Z,1.20
2022-09-16T04:42:17.504Z,1.37
2022-09-16T04:44:44.770Z,1.23
2022-09-16T04:47:11.392Z,1.10
2022-09-16T04:49:37.840Z,1.23
2022-09-16T04:52:04.393Z,1.20
2022-09-16T04:54:30.862Z,1.20
2022-09-16T04:56:57.717Z,1.42
2022-09-16T04:59:24.242Z,1.13
2022-09-16T05:01:50.870Z,1.17
2022-09-16T05:04:17.416Z,1.20
2022-09-16T05:06:44.538Z,0.97
2022-09-16T05:09:12.531Z,1.15
2022-09-16T05:11:40.510Z,1.10
2022-09-16T05:14:12.131Z,1.10
2022-09-16T05:16:38.628Z,1.13
2022-09-16T05:19:05.236Z,1.47
2022-09-16T05:21:34.399Z,1.20
2022-09-16T05:24:02.819Z,1.25
2022-09-16T05:26:31.585Z,0.85
2022-09-16T05:29:05.942Z,1.05
2022-09-16T05:31:38.065Z,1.03
2022-09-16T05:34:07.344Z,1.20
2022-09-16T05:36:36.375Z,1.00
2022-09-16T05:41:54.508Z,0.98
2022-09-16T05:44:21.186Z,0.90
2022-09-16T05:46:47.644Z,1.15
2022-09-16T05:49:20.320Z,0.98
2022-09-16T05:51:48.445Z,1.20
2022-09-16T05:54:14.965Z,1.00
2022-09-16T05:56:41.603Z,0.90
2022-09-16T05:59:12.260Z,0.98
2022-09-16T06:01:38.779Z,1.08
2022-09-16T06:04:07.481Z,1.00
2022-09-16T06:06:37.013Z,1.10
2022-09-16T06:09:32.730Z,1.20
2022-09-16T06:12:02.274Z,1.13
2022-09-16T06:14:29.192Z,0.90
2022-09-16T06:16:55.966Z,1.10
2022-09-16T06:19:22.619Z,1.05
2022-09-16T06:21:49.395Z,1.10
2022-09-16T06:24:17.390Z,1.00
2022-09-16T06:26:45.409Z,0.85
2022-09-16T06:29:12.390Z,0.90
2022-09-16T06:31:39.567Z,0.85
2022-09-16T06:34:07.445Z,0.80
2022-09-16T06:36:42.799Z,0.82
2022-09-16T06:39:13.530Z,0.60
2022-09-16T06:41:40.001Z,0.90
2022-09-16T06:44:06.463Z,0.73
2022-09-16T06:46:32.957Z,1.03
2022-09-16T06:49:04.527Z,0.80
2022-09-16T06:51:32.485Z,1.77
2022-09-16T06:54:01.661Z,0.60
2022-09-16T06:56:28.319Z,0.90
2022-09-16T06:58:58.130Z,0.80
2022-09-16T07:01:30.090Z,1.00
2022-09-16T07:03:58.442Z,1.00
2022-09-16T07:06:50.759Z,0.80
2022-09-16T07:09:14.660Z,0.82
2022-09-16T07:11:41.137Z,0.80
2022-09-16T07:14:08.287Z,0.85
2022-09-16T07:16:34.860Z,0.80
2022-09-16T07:19:01.990Z,0.73
2022-09-16T07:21:30.366Z,1.10
2022-09-16T07:23:59.218Z,1.03
2022-09-16T07:26:29.071Z,0.75
2022-09-16T07:28:58.297Z,0.60
2022-09-16T07:31:27.735Z,0.70
2022-09-16T07:34:01.282Z,0.80
2022-09-16T07:36:34.360Z,0.90
2022-09-16T07:39:01.577Z,0.77
2022-09-16T07:41:30.775Z,0.77
2022-09-16T07:43:59.351Z,0.60
2022-09-16T07:46:28.481Z,0.77
2022-09-16T07:48:55.566Z,0.70
2022-09-16T07:51:24.443Z,1.00
2022-09-16T07:53:55.292Z,0.60
2022-09-16T07:56:25.410Z,0.70
2022-09-16T07:58:53.221Z,0.50
2022-09-16T08:01:20.029Z,0.70
2022-09-16T08:03:47.092Z,0.60
2022-09-16T08:06:19.754Z,0.80
2022-09-16T08:08:47.141Z,0.80
2022-09-16T08:11:15.050Z,0.50
2022-09-16T08:13:42.982Z,0.50
2022-09-16T08:16:13.687Z,0.90
2022-09-16T08:18:40.872Z,0.80
2022-09-16T08:21:13.227Z,0.60
2022-09-16T08:23:40.611Z,0.50
2022-09-16T08:26:10.686Z,0.67
2022-09-16T08:28:57.473Z,0.52
2022-09-16T08:31:28.837Z,0.75
2022-09-16T08:33:56.245Z,0.85
2022-09-16T08:36:24.425Z,0.70
2022-09-16T08:38:53.479Z,0.90
2022-09-16T08:41:39.687Z,0.57
2022-09-16T08:44:13.749Z,0.60
2022-09-16T08:46:50.573Z,0.70
2022-09-16T08:49:26.763Z,0.52
2022-09-16T08:51:55.015Z,0.70
2022-09-16T08:54:27.785Z,0.60
2022-09-16T08:56:57.790Z,0.63
2022-09-16T08:59:27.624Z,0.40
2022-09-16T09:02:17.304Z,0.85
2022-09-16T09:04:44.270Z,0.40
2022-09-16T09:07:27.974Z,0.40
2022-09-16T09:10:13.189Z,0.50
2022-09-16T09:12:44.304Z,0.65
2022-09-16T09:15:28.662Z,0.45
2022-09-16T09:18:27.643Z,0.40
2022-09-16T09:21:09.750Z,0.40
2022-09-16T09:24:16.365Z,0.40
2022-09-16T09:26:45.656Z,0.55
2022-09-16T09:29:22.186Z,0.77
2022-09-16T09:32:06.928Z,0.70
2022-09-16T09:34:42.421Z,0.73
2022-09-16T09:37:36.417Z,0.80
2022-09-16T09:40:29.793Z,0.77
2022-09-16T09:43:17.535Z,0.50
2022-09-16T09:45:56.412Z,0.77
2022-09-16T09:48:47.372Z,0.60
2022-09-16T09:51:38.959Z,0.50
2022-09-16T09:54:22.062Z,0.50
2022-09-16T09:56:53.290Z,0.60
2022-09-16T09:59:31.372Z,0.60
2022-09-16T10:01:58.893Z,0.50
2022-09-16T10:04:25.593Z,0.60
2022-09-16T10:06:55.639Z,0.50
2022-09-16T10:09:23.101Z,0.60
2022-09-16T10:11:55.020Z,0.80
2022-09-16T10:14:34.836Z,0.70
2022-09-16T10:17:03.803Z,0.68
2022-09-16T10:19:35.241Z,0.77
2022-09-16T10:22:23.529Z,0.60
2022-09-16T10:25:17.283Z,0.60
2022-09-16T10:27:55.115Z,0.73
2022-09-16T10:33:03.082Z,0.50
2022-09-16T10:35:32.355Z,0.80
2022-09-16T10:38:05.935Z,1.13
2022-09-16T10:40:33.899Z,0.70
2022-09-16T10:43:07.292Z,0.80
2022-09-16T10:45:43.431Z,0.80
2022-09-16T10:48:17.706Z,0.63
2022-09-16T10:50:58.385Z,0.70
2022-09-16T10:53:37.628Z,0.43
2022-09-16T10:56:29.472Z,0.60
2022-09-16T10:59:22.344Z,0.80
2022-09-16T11:02:29.471Z,0.52
2022-09-16T11:05:31.354Z,0.53
2022-09-16T11:08:09.616Z,0.90
2022-09-16T11:10:42.121Z,0.60
2022-09-16T11:13:47.356Z,0.68
2022-09-16T11:16:23.102Z,0.60
2022-09-16T11:19:12.829Z,0.50
2022-09-16T11:21:57.165Z,0.70
2022-09-16T11:25:11.242Z,0.43
2022-09-16T11:27:58.938Z,0.50
2022-09-16T11:30:25.722Z,0.70
2022-09-16T11:33:02.803Z,0.60
2022-09-16T11:35:43.656Z,0.45
2022-09-16T11:38:42.400Z,0.50
2022-09-16T11:41:36.540Z,0.70
2022-09-16T11:44:33.376Z,0.55
2022-09-16T11:47:16.436Z,0.60
2022-09-16T11:50:10.939Z,0.40
2022-09-16T11:53:05.432Z,0.40
2022-09-16T11:56:06.030Z,0.30
2022-09-16T11:58:50.649Z,0.60
2022-09-16T12:01:35.202Z,0.30
2022-09-16T12:04:20.072Z,0.50
2022-09-16T12:07:15.651Z,0.50
2022-09-16T12:09:54.137Z,0.50
2022-09-16T12:12:26.169Z,0.40
2022-09-16T12:15:03.271Z,0.50
2022-09-16T12:17:35.036Z,0.40
2022-09-16T12:20:22.177Z,0.75
2022-09-16T12:23:18.665Z,0.50
2022-09-16T12:26:10.020Z,0.70
2022-09-16T12:28:52.811Z,0.40
2022-09-16T12:31:24.284Z,0.50
2022-09-16T12:34:25.598Z,0.50
2022-09-16T12:37:00.237Z,0.40
2022-09-16T12:39:26.709Z,0.50
2022-09-16T12:42:31.760Z,0.67
2022-09-16T12:45:04.182Z,0.50
2022-09-16T12:47:39.409Z,0.50
2022-09-16T12:50:42.758Z,0.40
2022-09-16T12:53:38.252Z,0.47
2022-09-16T12:56:19.690Z,0.57
2022-09-16T12:59:12.298Z,0.70
2022-09-16T13:01:48.806Z,0.43
2022-09-16T13:04:25.755Z,0.30
2022-09-16T13:06:58.225Z,0.40
2022-09-16T13:09:28.276Z,0.40
2022-09-16T13:14:55.073Z,0.35
2022-09-16T13:17:52.762Z,0.40
2022-09-16T13:20:21.790Z,0.45
2022-09-16T13:23:02.295Z,0.30
2022-09-16T13:25:43.569Z,0.30
2022-09-16T13:28:29.204Z,0.30
2022-09-16T13:30:55.930Z,0.38
2022-09-16T13:33:28.207Z,0.30
2022-09-16T13:36:14.444Z,0.20
2022-09-16T13:38:44.564Z,0.40
2022-09-16T13:41:13.663Z,0.30
2022-09-16T13:43:43.135Z,0.30
2022-09-16T13:46:16.122Z,0.20
2022-09-16T13:49:04.171Z,0.27
2022-09-16T13:51:36.180Z,0.20
2022-09-16T13:54:04.523Z,0.20
2022-09-16T13:56:55.649Z,0.10
2022-09-16T13:59:51.396Z,0.30
2022-09-16T14:02:33.218Z,0.33
2022-09-16T14:05:02.618Z,0.40
2022-09-16T14:07:45.006Z,0.38
2022-09-16T14:10:23.880Z,0.25
2022-09-16T14:12:56.407Z,0.30
2022-09-16T14:15:24.150Z,0.40
2022-09-16T14:17:59.491Z,0.40
2022-09-16T14:20:26.899Z,0.20
2022-09-16T14:23:18.110Z,0.40
2022-09-16T14:25:44.624Z,0.30
2022-09-16T14:28:17.843Z,0.40
2022-09-16T14:30:58.116Z,0.30
2022-09-16T14:33:34.893Z,0.55
2022-09-16T14:36:18.130Z,0.30
2022-09-16T14:38:49.757Z,0.30
2022-09-16T14:41:26.995Z,0.30
2022-09-16T14:43:57.697Z,0.30
2022-09-16T14:46:24.395Z,0.32
2022-09-16T14:48:50.963Z,0.45
2022-09-16T14:51:24.912Z,0.50
2022-09-16T14:54:15.179Z,0.53
2022-09-16T14:56:41.922Z,0.20
2022-09-16T14:59:13.518Z,0.73
2022-09-16T15:01:41.312Z,0.50
2022-09-16T15:04:18.608Z,0.38
2022-09-16T15:06:52.804Z,0.40
2022-09-16T15:09:25.447Z,0.32
2022-09-16T15:11:57.238Z,0.40
2022-09-16T15:14:25.765Z,0.57
2022-09-16T15:17:03.046Z,0.52
2022-09-16T15:19:38.005Z,0.30
2022-09-16T15:22:09.096Z,0.50
2022-09-16T15:24:41.144Z,0.30
2022-09-16T15:27:08.759Z,0.50
2022-09-16T15:29:46.346Z,0.30
2022-09-16T15:32:23.478Z,0.30
2022-09-16T15:35:12.364Z,0.30
2022-09-16T15:37:38.910Z,0.30
2022-09-16T15:40:33.700Z,0.30
2022-09-16T15:43:05.887Z,0.30
2022-09-16T15:45:33.029Z,0.40
2022-09-16T15:48:05.519Z,0.43
2022-09-16T15:50:41.006Z,0.50
2022-09-16T15:53:20.676Z,0.40
2022-09-16T15:55:50.180Z,0.30
2022-09-16T15:58:18.676Z,0.23
2022-09-16T16:01:07.950Z,0.30
2022-09-16T16:03:55.820Z,0.30
2022-09-16T16:06:50.613Z,0.30
2022-09-16T16:09:29.024Z,0.30
2022-09-16T16:12:00.156Z,0.27
2022-09-16T16:14:32.636Z,0.30
2022-09-16T16:17:14.646Z,0.20
2022-09-16T16:19:47.295Z,0.40
2022-09-16T16:22:16.102Z,0.30
2022-09-16T16:24:43.254Z,0.30
2022-09-16T16:27:10.559Z,0.60
2022-09-16T16:29:38.872Z,0.30
2022-09-16T16:32:12.080Z,0.30
2022-09-16T16:34:43.878Z,0.32
2022-09-16T16:37:28.015Z,0.40
2022-09-16T16:39:59.616Z,0.50
2022-09-16T16:42:28.621Z,0.25
2022-09-16T16:44:56.494Z,0.30
2022-09-16T16:47:23.956Z,0.40
2022-09-16T16:49:51.757Z,0.37
2022-09-16T16:52:18.593Z,0.55
2022-09-16T16:54:45.852Z,0.30
2022-09-16T16:57:12.651Z,0.30
2022-09-16T16:59:39.227Z,0.63
2022-09-16T17:02:06.080Z,0.50
2022-09-16T17:04:32.621Z,0.40
2022-09-16T17:07:21.842Z,0.40
2022-09-16T17:09:45.608Z,0.40
2022-09-16T17:12:12.933Z,0.60
2022-09-16T17:14:39.659Z,0.40
2022-09-16T17:17:06.520Z,0.30
2022-09-16T17:19:33.077Z,0.43
2022-09-16T17:21:59.613Z,0.40
2022-09-16T17:24:26.099Z,0.40
2022-09-16T17:26:52.533Z,0.33
2022-09-16T17:29:19.141Z,0.30
2022-09-16T17:31:45.643Z,0.40
2022-09-16T17:34:14.271Z,0.40
2022-09-16T17:36:43.397Z,0.40
2022-09-16T17:39:15.971Z,0.60
2022-09-16T17:41:44.274Z,0.40
2022-09-16T17:44:12.419Z,0.60
2022-09-16T17:46:41.422Z,0.55
2022-09-16T17:49:14.055Z,0.38
2022-09-16T17:51:41.144Z,0.43
2022-09-16T17:54:08.749Z,0.50
2022-09-16T17:56:36.045Z,0.40
2022-09-16T17:59:02.553Z,0.40
2022-09-16T18:01:30.722Z,0.60
2022-09-16T18:03:57.868Z,0.47
2022-09-16T18:06:28.326Z,0.50
2022-09-16T18:08:55.406Z,0.20
2022-09-16T18:11:22.336Z,0.57
2022-09-16T18:13:54.429Z,0.50
2022-09-16T18:16:21.312Z,1.00
2022-09-16T18:18:52.062Z,0.88
2022-09-16T18:21:19.761Z,0.60
2022-09-16T18:23:49.704Z,0.50
2022-09-16T18:26:17.061Z,0.63
2022-09-16T18:29:07.935Z,0.40
2022-09-16T18:31:32.897Z,0.60
2022-09-16T18:33:59.395Z,0.60
2022-09-16T18:36:28.508Z,0.60
2022-09-16T18:38:57.179Z,0.80
2022-09-16T18:41:30.175Z,0.57
2022-09-16T18:43:59.848Z,0.60
2022-09-16T18:46:28.991Z,0.47
2022-09-16T18:48:56.526Z,0.60
2022-09-16T18:51:31.826Z,0.70
2022-09-16T18:54:03.211Z,0.43
2022-09-16T18:56:32.149Z,1.00
2022-09-16T18:59:20.418Z,0.50
2022-09-16T19:01:48.783Z,0.80
2022-09-16T19:04:17.709Z,0.55
2022-09-16T19:06:47.503Z,0.50
2022-09-16T19:09:16.155Z,0.47
2022-09-16T19:11:43.152Z,1.05
2022-09-16T19:14:12.476Z,0.90
2022-09-16T19:16:40.501Z,0.60
2022-09-16T19:19:08.851Z,0.60
2022-09-16T19:21:36.202Z,0.60
2022-09-16T19:24:06.624Z,0.80
2022-09-16T19:26:37.650Z,0.70
2022-09-16T19:29:06.773Z,0.57
2022-09-16T19:31:35.571Z,0.53
2022-09-16T19:34:02.168Z,1.10
2022-09-16T19:36:30.188Z,0.75
2022-09-16T19:38:57.635Z,0.57
2022-09-16T19:41:27.129Z,0.80
2022-09-16T19:43:58.361Z,0.70
2022-09-16T19:46:26.368Z,0.73
2022-09-16T19:48:53.410Z,0.60
2022-09-16T19:51:22.961Z,0.70
2022-09-16T19:53:50.262Z,0.70
2022-09-16T19:56:25.499Z,0.70
2022-09-16T19:58:53.017Z,1.10
2022-09-16T20:01:24.959Z,0.65
2022-09-16T20:03:52.413Z,0.80
2022-09-16T20:06:21.758Z,0.60
2022-09-16T20:08:53.385Z,0.67
2022-09-16T20:11:22.625Z,0.82
2022-09-16T20:13:56.871Z,0.75
2022-09-16T20:16:30.823Z,0.63
2022-09-16T20:18:58.147Z,0.70
2022-09-16T20:21:26.550Z,1.00
2022-09-16T20:23:54.226Z,0.55
2022-09-16T20:26:21.679Z,0.77
2022-09-16T20:28:51.254Z,0.63
2022-09-16T20:31:24.841Z,0.82
2022-09-16T20:33:52.282Z,0.80
2022-09-16T20:36:21.203Z,0.90
2022-09-16T20:38:49.015Z,0.73
2022-09-16T20:41:15.862Z,0.75
2022-09-16T20:43:43.171Z,0.70
2022-09-16T20:46:15.469Z,0.70
2022-09-16T20:48:42.832Z,0.70
2022-09-16T20:51:20.200Z,0.52
2022-09-16T20:53:58.393Z,0.82
2022-09-16T20:56:26.458Z,0.80
2022-09-16T20:58:53.514Z,0.90
2022-09-16T21:01:25.652Z,0.57
2022-09-16T21:03:54.611Z,0.73
2022-09-16T21:06:22.038Z,0.85
2022-09-16T21:08:48.622Z,0.70
2022-09-16T21:11:17.550Z,0.60
2022-09-16T21:13:46.363Z,0.70
2022-09-16T21:16:15.659Z,0.70
2022-09-16T21:18:43.093Z,0.70
2022-09-16T21:21:17.761Z,0.70
2022-09-16T21:23:48.561Z,0.70
2022-09-16T21:26:17.277Z,1.05
2022-09-16T21:28:45.116Z,1.00
2022-09-16T21:31:14.745Z,0.60
2022-09-16T21:33:43.052Z,0.73
2022-09-16T21:36:12.402Z,0.80
2022-09-16T21:38:39.703Z,0.68
2022-09-16T21:41:09.496Z,0.90
2022-09-16T21:43:41.822Z,0.70
2022-09-16T21:46:13.673Z,0.47
2022-09-16T21:48:40.472Z,0.60
2022-09-16T21:51:12.345Z,0.63
2022-09-16T21:53:42.697Z,0.82
2022-09-16T21:56:27.163Z,0.55
2022-09-16T21:58:55.551Z,0.70
2022-09-16T22:01:24.769Z,0.40
2022-09-16T22:04:02.841Z,0.80
2022-09-16T22:06:30.197Z,0.63
2022-09-16T22:09:00.867Z,0.60
2022-09-16T22:11:30.613Z,0.70
2022-09-16T22:14:00.613Z,0.60
2022-09-16T22:16:30.018Z,0.80
2022-09-16T22:18:59.212Z,0.77
2022-09-16T22:21:27.479Z,0.77
2022-09-16T22:23:54.205Z,0.60
2022-09-16T22:26:23.287Z,0.70
2022-09-16T22:28:50.818Z,0.95
2022-09-16T22:31:23.221Z,0.63
2022-09-16T22:33:51.672Z,0.65
2022-09-16T22:36:21.636Z,0.80
2022-09-16T22:38:56.483Z,0.83
2022-09-16T22:41:24.289Z,0.60
2022-09-16T22:43:52.866Z,0.50
2022-09-16T22:46:24.782Z,1.00
2022-09-16T22:48:52.627Z,0.60
2022-09-16T22:51:20.599Z,0.77
2022-09-16T22:53:48.294Z,0.80
2022-09-16T22:56:18.788Z,0.88
2022-09-16T22:58:46.490Z,0.65
2022-09-16T23:01:16.228Z,0.63
2022-09-16T23:03:44.349Z,0.60
2022-09-16T23:06:13.723Z,0.70
2022-09-16T23:08:42.731Z,0.65
2022-09-16T23:11:17.022Z,0.50
2022-09-16T23:13:45.408Z,0.68
2022-09-16T23:16:26.193Z,0.50
2022-09-16T23:18:54.816Z,0.65
2022-09-16T23:21:22.299Z,0.55
2022-09-16T23:23:54.202Z,0.47
2022-09-16T23:26:23.046Z,0.60
2022-09-16T23:28:54.838Z,0.50
2022-09-16T23:31:24.030Z,0.50
2022-09-16T23:33:50.612Z,0.80
2022-09-16T23:36:18.173Z,0.60
2022-09-16T23:38:45.944Z,0.70
2022-09-16T23:41:15.610Z,0.80
2022-09-16T23:43:43.496Z,0.73
2022-09-16T23:46:11.687Z,0.70
2022-09-16T23:48:38.702Z,1.00
2022-09-16T23:51:07.299Z,0.60
2022-09-16T23:53:35.375Z,0.70
2022-09-16T23:56:10.493Z,0.40
2022-09-16T23:58:37.190Z,0.60
